Time;durP1;ratioP1;P1;durP2;ratioP2;P2;SDS_P1;SDS_P2;PMS_P1;PMS_P2;Temp;Humidity;BMP_temperature;BMP_pressure;BME280_temperature;BME280_humidity;BME280_pressure;Samples;Min_cycle;Max_cycle;Signal;HPM_P1;HPM_P2
2022/09/10 00:01:36;;;;;;;7.63;2.77;;;15.50;1.00;;;;;;6134795;23;20427;-83
2022/09/10 00:04:07;;;;;;;8.43;2.70;;;15.50;1.00;;;;;;6136171;23;20423;-83
2022/09/10 00:06:38;;;;;;;8.73;3.10;;;15.50;1.00;;;;;;6120383;23;20428;-82
2022/09/10 00:09:06;;;;;;;9.77;3.13;;;15.50;1.00;;;;;;6134071;23;20430;-83
2022/09/10 00:11:37;;;;;;;9.27;2.93;;;15.50;1.00;;;;;;6136254;23;20426;-81
2022/09/10 00:14:08;;;;;;;8.67;2.93;;;15.50;1.00;;;;;;6119726;23;20436;-82
2022/09/10 00:16:35;;;;;;;7.20;2.23;;;15.40;1.00;;;;;;6134016;23;20431;-82
2022/09/10 00:19:05;;;;;;;7.33;2.53;;;15.40;1.00;;;;;;6134736;23;20928;-82
2022/09/10 00:21:39;;;;;;;8.50;3.27;;;15.40;1.00;;;;;;6118058;23;20491;-81
2022/09/10 00:24:11;;;;;;;7.80;2.73;;;15.40;1.00;;;;;;6118527;23;20424;-81
2022/09/10 00:26:38;;;;;;;10.47;2.50;;;15.30;1.00;;;;;;6108861;23;20446;-81
2022/09/10 00:29:08;;;;;;;8.60;2.70;;;15.30;1.00;;;;;;6119614;23;20445;-82
2022/09/10 00:31:47;;;;;;;7.67;3.00;;;15.30;1.00;;;;;;6133588;23;20427;-80
2022/09/10 00:34:14;;;;;;;8.10;3.07;;;15.30;1.00;;;;;;6120780;23;20543;-80
2022/09/10 00:36:47;;;;;;;7.90;2.80;;;15.30;1.00;;;;;;6131428;23;20966;-80
2022/09/10 00:39:19;;;;;;;9.10;2.77;;;15.30;1.00;;;;;;6106336;23;20412;-80
2022/09/10 00:41:49;;;;;;;8.10;2.80;;;15.30;1.00;;;;;;6109470;23;20423;-79
2022/09/10 00:44:53;;;;;;;9.90;3.27;;;15.30;1.00;;;;;;6088384;23;20576;-80
2022/09/10 00:47:28;;;;;;;8.23;2.90;;;15.20;1.00;;;;;;6105335;23;20455;-81
2022/09/10 00:50:04;;;;;;;8.60;2.80;;;15.30;1.00;;;;;;6135534;23;20422;-82
2022/09/10 00:52:36;;;;;;;9.40;3.27;;;15.20;1.00;;;;;;6123369;23;20391;-82
2022/09/10 00:55:08;;;;;;;13.43;3.10;;;15.20;1.00;;;;;;6124171;23;20388;-82
2022/09/10 00:57:47;;;;;;;8.80;2.87;;;15.20;1.00;;;;;;6137537;23;20935;-81
2022/09/10 01:00:18;;;;;;;8.40;3.30;;;15.10;1.00;;;;;;6134849;23;20455;-83
2022/09/10 01:02:45;;;;;;;10.10;3.40;;;15.10;1.00;;;;;;6121444;23;20392;-82
2022/09/10 01:05:27;;;;;;;10.30;3.47;;;15.10;1.00;;;;;;6122186;23;20431;-82
2022/09/10 01:07:58;;;;;;;9.53;3.30;;;15.10;1.00;;;;;;6124415;23;20432;-81
2022/09/10 01:10:33;;;;;;;8.77;3.20;;;15.10;1.00;;;;;;6095327;23;20416;-82
2022/09/10 01:13:38;;;;;;;9.20;3.30;;;15.10;1.00;;;;;;6108986;23;20396;-84
2022/09/10 01:16:17;;;;;;;9.23;3.83;;;15.10;1.00;;;;;;6095224;23;20432;-84
2022/09/10 01:19:06;;;;;;;7.47;2.83;;;15.10;1.00;;;;;;6123363;23;20407;-82
2022/09/10 01:22:06;;;;;;;8.80;3.50;;;15.10;1.00;;;;;;6120146;23;20505;-82
2022/09/10 01:25:00;;;;;;;8.20;2.93;;;15.00;1.00;;;;;;6107348;23;21258;-85
2022/09/10 01:27:42;;;;;;;8.87;3.43;;;15.00;1.00;;;;;;6122645;23;20462;-84
2022/09/10 01:30:18;;;;;;;9.73;3.27;;;14.90;1.00;;;;;;6122177;23;20455;-81
2022/09/10 01:32:59;;;;;;;10.20;3.30;;;14.90;1.00;;;;;;6136821;23;20399;-81
2022/09/10 01:35:35;;;;;;;8.40;3.30;;;14.90;1.00;;;;;;6108582;23;20410;-82
2022/09/10 01:38:08;;;;;;;8.37;3.80;;;14.80;1.00;;;;;;6136680;23;20510;-82
2022/09/10 01:40:38;;;;;;;9.70;3.57;;;14.80;1.00;;;;;;6121059;23;20463;-83
2022/09/10 01:43:09;;;;;;;8.50;2.90;;;14.80;1.00;;;;;;6125735;23;20396;-80
2022/09/10 01:45:53;;;;;;;8.30;3.57;;;14.80;1.00;;;;;;6141731;23;20396;-86
2022/09/10 01:48:48;;;;;;;7.93;2.80;;;14.80;1.00;;;;;;6125192;23;20392;-82
2022/09/10 01:51:27;;;;;;;9.67;3.30;;;14.80;1.00;;;;;;6125579;23;20426;-84
2022/09/10 01:54:16;;;;;;;10.10;3.70;;;14.80;1.00;;;;;;6124761;23;20443;-82
2022/09/10 01:57:02;;;;;;;10.57;3.97;;;14.80;1.00;;;;;;6123077;23;20435;-82
2022/09/10 01:59:40;;;;;;;9.07;4.10;;;14.70;1.00;;;;;;6138503;23;20728;-81
2022/09/10 02:02:18;;;;;;;8.37;3.53;;;14.80;1.00;;;;;;6116786;23;21012;-80
2022/09/10 02:04:55;;;;;;;9.57;4.00;;;14.80;1.00;;;;;;6121147;23;20763;-81
2022/09/10 02:07:38;;;;;;;9.37;4.10;;;14.80;1.00;;;;;;6123518;23;20478;-79
2022/09/10 02:10:10;;;;;;;8.10;3.17;;;14.80;1.00;;;;;;6119631;23;20427;-85
2022/09/10 02:12:40;;;;;;;9.93;3.90;;;14.80;1.00;;;;;;6109754;23;20495;-83
2022/09/10 02:15:16;;;;;;;8.07;3.40;;;14.80;1.00;;;;;;6122968;23;20488;-84
2022/09/10 02:17:48;;;;;;;8.27;3.43;;;14.70;1.00;;;;;;6127750;23;20773;-84
2022/09/10 02:20:18;;;;;;;13.00;7.97;;;14.70;1.00;;;;;;6139134;23;20383;-82
2022/09/10 02:22:49;;;;;;;9.27;3.87;;;14.70;1.00;;;;;;6126155;23;20427;-83
2022/09/10 02:25:20;;;;;;;9.17;4.17;;;14.70;1.00;;;;;;6127366;23;20842;-82
2022/09/10 02:27:48;;;;;;;10.53;4.00;;;14.70;1.00;;;;;;6140556;23;20419;-84
2022/09/10 02:30:19;;;;;;;8.97;3.50;;;14.70;1.00;;;;;;6142083;23;20398;-85
2022/09/10 02:32:46;;;;;;;9.00;3.77;;;14.70;1.00;;;;;;6139103;23;20478;-81
2022/09/10 02:35:22;;;;;;;8.83;3.53;;;14.70;1.00;;;;;;6112466;23;20460;-82
2022/09/10 02:37:49;;;;;;;9.63;3.50;;;14.70;1.00;;;;;;6138432;23;20423;-80
2022/09/10 02:40:18;;;;;;;9.57;3.87;;;14.70;1.00;;;;;;6109586;23;20384;-79
2022/09/10 02:42:47;;;;;;;9.13;3.40;;;14.70;1.00;;;;;;6134709;23;20506;-79
2022/09/10 02:45:20;;;;;;;9.30;3.80;;;14.70;1.00;;;;;;6119088;23;20395;-82
2022/09/10 02:47:49;;;;;;;9.83;3.90;;;14.60;1.00;;;;;;6106266;23;20388;-81
2022/09/10 02:50:23;;;;;;;10.10;3.83;;;14.60;1.00;;;;;;6106756;23;20391;-81
2022/09/10 02:52:50;;;;;;;13.63;4.67;;;14.60;1.00;;;;;;6121226;23;20435;-80
2022/09/10 02:55:17;;;;;;;10.87;4.80;;;14.60;1.00;;;;;;6108524;23;20445;-83
2022/09/10 02:57:44;;;;;;;8.73;4.30;;;14.60;1.00;;;;;;6133764;23;20420;-82
2022/09/10 03:00:12;;;;;;;9.63;3.97;;;14.50;1.00;;;;;;6121058;23;20423;-83
2022/09/10 03:02:40;;;;;;;10.30;4.37;;;14.60;1.00;;;;;;6136942;23;20439;-80
2022/09/10 03:05:08;;;;;;;9.30;4.07;;;14.50;1.00;;;;;;6135571;23;20426;-82
2022/09/10 03:07:48;;;;;;;10.50;4.30;;;14.50;1.00;;;;;;6134968;23;20411;-83
2022/09/10 03:10:19;;;;;;;10.57;3.97;;;14.50;1.00;;;;;;6108641;23;20416;-79
2022/09/10 03:12:48;;;;;;;11.50;4.97;;;14.40;1.00;;;;;;6122621;23;20471;-81
2022/09/10 03:15:19;;;;;;;12.13;5.27;;;14.40;1.00;;;;;;6135626;23;20432;-80
2022/09/10 03:17:47;;;;;;;9.13;4.53;;;14.40;1.00;;;;;;6136801;23;20396;-80
2022/09/10 03:20:17;;;;;;;11.47;5.13;;;14.40;1.00;;;;;;6136137;23;20427;-79
2022/09/10 03:22:46;;;;;;;9.77;4.57;;;14.30;1.00;;;;;;6135569;23;20432;-82
2022/09/10 03:25:13;;;;;;;9.90;4.37;;;14.30;1.00;;;;;;6122732;23;20416;-80
2022/09/10 03:27:40;;;;;;;10.73;5.00;;;14.20;1.00;;;;;;6124986;23;20512;-80
2022/09/10 03:30:08;;;;;;;9.47;4.00;;;14.20;1.00;;;;;;6138334;23;20430;-81
2022/09/10 03:32:37;;;;;;;8.63;4.30;;;14.20;1.00;;;;;;6136189;23;20435;-81
2022/09/10 03:35:12;;;;;;;8.63;4.10;;;14.20;1.00;;;;;;6123744;23;20804;-80
2022/09/10 03:37:40;;;;;;;7.07;4.27;;;14.20;1.00;;;;;;6137483;23;20427;-82
2022/09/10 03:40:09;;;;;;;8.40;4.70;;;14.20;1.00;;;;;;6134204;23;20470;-79
2022/09/10 03:42:36;;;;;;;8.43;4.67;;;14.20;1.00;;;;;;6136342;23;20439;-80
2022/09/10 03:45:04;;;;;;;8.00;3.77;;;14.20;1.00;;;;;;6135545;23;20492;-80
2022/09/10 03:47:33;;;;;;;8.50;4.43;;;14.20;1.00;;;;;;6120409;23;20416;-80
2022/09/10 03:50:00;;;;;;;10.17;4.03;;;14.20;1.00;;;;;;6136242;23;20420;-80
2022/09/10 03:52:28;;;;;;;7.00;4.20;;;14.10;1.00;;;;;;6122908;23;20486;-81
2022/09/10 03:54:59;;;;;;;8.10;4.07;;;14.20;1.00;;;;;;6110073;23;20420;-81
2022/09/10 03:57:25;;;;;;;8.07;4.30;;;14.20;1.00;;;;;;6124972;23;20419;-80
2022/09/10 03:59:52;;;;;;;8.43;4.07;;;14.20;1.00;;;;;;6133301;23;20900;-80
2022/09/10 04:02:19;;;;;;;7.23;3.93;;;14.10;1.00;;;;;;6131156;23;20546;-80
2022/09/10 04:04:46;;;;;;;8.93;5.03;;;14.10;1.00;;;;;;6130565;23;20419;-78
2022/09/10 04:07:13;;;;;;;6.60;3.60;;;14.10;1.00;;;;;;6104567;23;20463;-79
2022/09/10 04:09:43;;;;;;;8.40;4.27;;;14.10;1.00;;;;;;6133664;23;20896;-77
2022/09/10 04:12:09;;;;;;;8.63;4.30;;;14.10;1.00;;;;;;6133518;23;20416;-79
2022/09/10 04:14:38;;;;;;;8.80;4.50;;;14.10;1.00;;;;;;6132723;23;20399;-79
2022/09/10 04:17:05;;;;;;;8.03;4.30;;;14.00;1.00;;;;;;6119254;23;20449;-79
2022/09/10 04:19:34;;;;;;;6.63;3.90;;;14.00;1.00;;;;;;6117773;23;20430;-79
2022/09/10 04:22:01;;;;;;;9.50;4.77;;;14.00;1.00;;;;;;6133244;23;20944;-79
2022/09/10 04:24:28;;;;;;;8.13;4.27;;;14.00;1.00;;;;;;6131357;23;20432;-80
2022/09/10 04:26:57;;;;;;;8.30;5.00;;;13.90;1.00;;;;;;6133742;23;20850;-79
2022/09/10 04:29:28;;;;;;;9.43;4.57;;;13.80;1.00;;;;;;6120876;23;20440;-79
2022/09/10 04:31:58;;;;;;;10.23;4.67;;;13.80;1.00;;;;;;6134234;23;20408;-80
2022/09/10 04:34:26;;;;;;;10.47;4.80;;;13.80;1.00;;;;;;6132023;23;21235;-79
2022/09/10 04:36:53;;;;;;;7.87;4.20;;;13.80;1.00;;;;;;6131726;23;20462;-80
2022/09/10 04:39:20;;;;;;;8.83;4.27;;;13.80;1.00;;;;;;6132073;23;20995;-79
2022/09/10 04:41:47;;;;;;;11.23;4.70;;;13.70;1.00;;;;;;6133918;23;20518;-79
2022/09/10 04:44:18;;;;;;;9.10;4.90;;;13.80;1.00;;;;;;6126732;23;20421;-77
2022/09/10 04:46:46;;;;;;;9.03;4.47;;;13.80;1.00;;;;;;6131571;23;20420;-80
2022/09/10 04:49:18;;;;;;;10.03;5.17;;;13.80;1.00;;;;;;6107316;23;20448;-78
2022/09/10 04:51:45;;;;;;;8.10;4.80;;;13.80;1.00;;;;;;6131132;23;20431;-78
2022/09/10 04:54:15;;;;;;;8.10;4.00;;;13.80;1.00;;;;;;6103317;23;20420;-78
2022/09/10 04:56:46;;;;;;;9.00;4.20;;;13.80;1.00;;;;;;6116484;23;21039;-78
2022/09/10 04:59:12;;;;;;;9.00;4.40;;;13.80;1.00;;;;;;6116919;23;20418;-80
2022/09/10 05:01:42;;;;;;;7.20;4.63;;;13.80;1.00;;;;;;6132554;23;20408;-79
2022/09/10 05:04:09;;;;;;;6.73;4.03;;;13.80;1.00;;;;;;6120604;23;20423;-79
2022/09/10 05:06:35;;;;;;;7.77;4.03;;;13.80;1.00;;;;;;6120238;23;20435;-82
2022/09/10 05:09:05;;;;;;;11.60;5.40;;;13.80;1.00;;;;;;6133609;23;20772;-78
2022/09/10 05:11:32;;;;;;;7.93;4.33;;;13.80;1.00;;;;;;6133671;23;20428;-78
2022/09/10 05:13:58;;;;;;;8.00;4.20;;;13.80;1.00;;;;;;6114400;23;20515;-78
2022/09/10 05:16:25;;;;;;;9.43;4.40;;;13.80;1.00;;;;;;6078143;23;20901;-77
2022/09/10 05:18:56;;;;;;;10.07;5.27;;;13.90;1.00;;;;;;6133922;23;20498;-79
2022/09/10 05:21:22;;;;;;;8.33;4.97;;;13.90;1.00;;;;;;6131390;23;20449;-77
2022/09/10 05:23:49;;;;;;;8.70;4.60;;;13.90;1.00;;;;;;6132717;23;20411;-77
2022/09/10 05:26:16;;;;;;;7.43;4.03;;;13.80;1.00;;;;;;6132784;23;20773;-78
2022/09/10 05:28:43;;;;;;;7.80;4.70;;;13.80;1.00;;;;;;6133419;23;20431;-78
2022/09/10 05:31:11;;;;;;;9.53;5.00;;;13.80;1.00;;;;;;6133764;23;21148;-79
2022/09/10 05:33:40;;;;;;;8.50;5.20;;;13.90;1.00;;;;;;6135467;23;20420;-78
2022/09/10 05:36:09;;;;;;;8.93;4.70;;;13.90;1.00;;;;;;6128720;23;20831;-79
2022/09/10 05:38:36;;;;;;;7.80;4.60;;;13.90;1.00;;;;;;6132106;23;20991;-77
2022/09/10 05:41:04;;;;;;;6.90;4.27;;;13.90;1.00;;;;;;6133781;23;20505;-78
2022/09/10 05:43:30;;;;;;;7.33;3.83;;;13.90;1.00;;;;;;6132053;23;20383;-78
2022/09/10 05:45:57;;;;;;;8.03;4.53;;;14.00;1.00;;;;;;6133442;23;20392;-78
2022/09/10 05:48:25;;;;;;;8.90;4.33;;;14.00;1.00;;;;;;6132796;23;20399;-79
2022/09/10 05:50:52;;;;;;;7.43;4.20;;;14.10;1.00;;;;;;6133411;23;20970;-82
2022/09/10 05:53:20;;;;;;;7.63;4.90;;;14.20;1.00;;;;;;6129592;23;20435;-79
2022/09/10 05:55:48;;;;;;;7.50;4.33;;;14.20;1.00;;;;;;6132774;23;20428;-80
2022/09/10 05:58:15;;;;;;;10.40;4.47;;;14.20;1.00;;;;;;6132422;23;20427;-78
2022/09/10 06:00:43;;;;;;;8.30;4.20;;;14.30;1.00;;;;;;6134277;23;20498;-81
2022/09/10 06:03:09;;;;;;;7.50;4.00;;;14.40;1.00;;;;;;6132934;23;21018;-81
2022/09/10 06:05:36;;;;;;;7.20;4.33;;;14.50;1.00;;;;;;6135181;23;20435;-82
2022/09/10 06:08:03;;;;;;;7.50;3.97;;;14.60;1.00;;;;;;6134908;23;20428;-81
2022/09/10 06:10:33;;;;;;;8.20;3.80;;;14.70;1.00;;;;;;6121320;23;20431;-81
2022/09/10 06:13:01;;;;;;;8.27;4.30;;;14.80;1.00;;;;;;6123079;23;20756;-82
2022/09/10 06:15:28;;;;;;;7.77;4.10;;;14.90;1.00;;;;;;6137115;23;20424;-82
2022/09/10 06:17:55;;;;;;;8.67;3.77;;;15.00;1.00;;;;;;6135977;23;20743;-82
2022/09/10 06:20:22;;;;;;;8.40;4.23;;;15.00;1.00;;;;;;6133023;23;20431;-82
2022/09/10 06:22:49;;;;;;;7.60;3.77;;;15.10;1.00;;;;;;6137197;23;20950;-80
2022/09/10 06:25:15;;;;;;;7.50;4.10;;;15.20;1.00;;;;;;6120366;23;20439;-82
2022/09/10 06:27:44;;;;;;;7.00;3.80;;;15.20;1.00;;;;;;6136942;23;20464;-81
2022/09/10 06:30:15;;;;;;;7.40;3.60;;;15.20;1.00;;;;;;6135647;23;20443;-81
2022/09/10 06:32:47;;;;;;;7.70;3.90;;;15.30;1.00;;;;;;6137006;23;20384;-82
2022/09/10 06:35:16;;;;;;;7.30;3.70;;;15.30;1.00;;;;;;6135473;23;20741;-82
2022/09/10 06:37:45;;;;;;;10.40;4.20;;;15.40;1.00;;;;;;6138464;23;20547;-82
2022/09/10 06:40:12;;;;;;;6.57;3.33;;;15.50;1.00;;;;;;6124346;23;20422;-82
2022/09/10 06:42:39;;;;;;;6.40;3.40;;;15.60;1.00;;;;;;6134667;23;21204;-83
2022/09/10 06:45:09;;;;;;;8.20;3.90;;;15.60;1.00;;;;;;6138928;23;21263;-82
2022/09/10 06:47:37;;;;;;;7.80;3.83;;;15.70;1.00;;;;;;6141065;23;20436;-81
2022/09/10 06:50:06;;;;;;;7.43;3.60;;;15.80;1.00;;;;;;6141301;23;20483;-82
2022/09/10 06:52:36;;;;;;;7.87;3.33;;;16.00;1.00;;;;;;6140148;23;20394;-82
2022/09/10 06:55:04;;;;;;;7.73;2.90;;;16.10;1.00;;;;;;6140527;23;20430;-80
2022/09/10 06:57:31;;;;;;;7.80;2.83;;;16.20;1.00;;;;;;6139747;23;20538;-82
2022/09/10 06:59:58;;;;;;;7.03;3.10;;;16.30;1.00;;;;;;6139962;23;20928;-82
2022/09/10 07:02:27;;;;;;;8.53;2.90;;;16.40;1.00;;;;;;6135571;23;20420;-82
2022/09/10 07:04:56;;;;;;;10.23;4.30;;;16.50;1.00;;;;;;6137893;23;21279;-81
2022/09/10 07:07:27;;;;;;;7.33;3.23;;;16.50;1.00;;;;;;6135127;23;20428;-83
2022/09/10 07:09:54;;;;;;;7.07;3.07;;;16.60;1.00;;;;;;6137121;23;20415;-83
2022/09/10 07:12:23;;;;;;;7.67;2.37;;;16.70;1.00;;;;;;6134866;23;20420;-82
2022/09/10 07:14:51;;;;;;;8.63;3.97;;;16.70;1.00;;;;;;6138065;23;20430;-82
2022/09/10 07:17:20;;;;;;;7.80;2.93;;;16.80;1.00;;;;;;6122461;23;20832;-80
2022/09/10 07:19:48;;;;;;;6.83;2.70;;;17.00;1.00;;;;;;6137033;23;20439;-81
2022/09/10 07:22:15;;;;;;;8.13;4.27;;;17.10;1.00;;;;;;6123616;23;20433;-82
2022/09/10 07:24:42;;;;;;;9.23;2.60;;;17.20;1.00;;;;;;6124536;23;20550;-81
2022/09/10 07:27:10;;;;;;;6.53;3.17;;;17.30;1.00;;;;;;6138132;23;20444;-81
2022/09/10 07:29:37;;;;;;;6.60;2.63;;;17.50;1.00;;;;;;6137440;23;20411;-81
2022/09/10 07:32:06;;;;;;;6.93;2.93;;;17.50;1.00;;;;;;6139442;23;20420;-81
2022/09/10 07:34:33;;;;;;;6.20;2.50;;;17.70;1.00;;;;;;6135747;23;20392;-83
2022/09/10 07:37:01;;;;;;;7.40;3.03;;;17.80;1.00;;;;;;6136801;23;20531;-83
2022/09/10 07:39:28;;;;;;;6.80;2.50;;;18.00;1.00;;;;;;6121518;23;20523;-82
2022/09/10 07:41:55;;;;;;;7.53;2.50;;;18.00;1.00;;;;;;6137653;23;20503;-84
2022/09/10 07:44:23;;;;;;;7.10;3.07;;;18.10;1.00;;;;;;6136273;23;20441;-82
2022/09/10 07:46:58;;;;;;;6.70;2.73;;;18.20;1.00;;;;;;6139021;23;20498;-82
2022/09/10 07:49:28;;;;;;;10.63;4.53;;;18.30;1.00;;;;;;6138561;23;20461;-83
2022/09/10 07:51:58;;;;;;;9.67;3.30;;;18.30;1.00;;;;;;6141594;23;20378;-82
2022/09/10 07:54:29;;;;;;;7.37;2.57;;;18.40;1.00;;;;;;6141995;23;21216;-79
2022/09/10 07:56:57;;;;;;;9.40;4.40;;;18.50;1.00;;;;;;6146672;23;20382;-83
2022/09/10 07:59:27;;;;;;;8.50;3.63;;;18.60;1.00;;;;;;6145125;23;20404;-82
2022/09/10 08:01:56;;;;;;;10.63;2.40;;;18.70;1.00;;;;;;6144591;23;20423;-84
2022/09/10 08:04:27;;;;;;;7.23;2.57;;;18.80;1.00;;;;;;6127856;23;20392;-83
2022/09/10 08:06:55;;;;;;;12.83;3.57;;;19.00;1.00;;;;;;6139682;23;20888;-83
2022/09/10 08:09:26;;;;;;;9.87;3.37;;;19.00;1.00;;;;;;6139685;23;20450;-83
2022/09/10 08:11:55;;;;;;;7.87;3.13;;;19.00;1.00;;;;;;6141256;23;20416;-83
2022/09/10 08:14:24;;;;;;;8.70;2.80;;;19.10;1.00;;;;;;6136519;23;20426;-81
2022/09/10 08:16:51;;;;;;;7.37;2.90;;;19.20;1.00;;;;;;6139481;23;20830;-81
2022/09/10 08:19:18;;;;;;;6.73;2.30;;;19.40;1.00;;;;;;6140038;23;20398;-82
2022/09/10 08:21:47;;;;;;;7.60;2.80;;;19.50;1.00;;;;;;6140251;23;20455;-83
2022/09/10 08:24:14;;;;;;;8.77;2.80;;;19.60;1.00;;;;;;6138987;23;20422;-84
2022/09/10 08:26:51;;;;;;;7.00;2.57;;;19.70;1.00;;;;;;6124672;23;20905;-82
2022/09/10 08:29:19;;;;;;;7.30;2.40;;;19.80;1.00;;;;;;6111025;23;20407;-82
2022/09/10 08:31:47;;;;;;;6.10;1.90;;;19.90;1.00;;;;;;6124299;23;20986;-83
2022/09/10 08:34:14;;;;;;;8.00;3.20;;;19.90;1.00;;;;;;6126762;23;20402;-82
2022/09/10 08:36:41;;;;;;;11.50;2.40;;;20.00;1.00;;;;;;6141064;23;20503;-82
2022/09/10 08:39:09;;;;;;;7.10;2.40;;;20.10;1.00;;;;;;6136849;23;20410;-83
2022/09/10 08:41:52;;;;;;;7.90;3.10;;;20.20;1.00;;;;;;6139424;23;20467;-82
2022/09/10 08:44:35;;;;;;;7.53;3.40;;;20.20;1.00;;;;;;6137419;23;20601;-82
2022/09/10 08:47:20;;;;;;;6.90;2.70;;;20.40;1.00;;;;;;6129939;23;20931;-82
2022/09/10 08:49:52;;;;;;;7.93;2.60;;;20.50;1.00;;;;;;6116433;23;21011;-82
2022/09/10 08:52:28;;;;;;;7.07;2.23;;;20.60;1.00;;;;;;6116989;23;20515;-81
2022/09/10 08:55:04;;;;;;;9.23;2.90;;;20.60;1.00;;;;;;6129797;23;20435;-81
2022/09/10 08:57:39;;;;;;;6.27;2.23;;;20.70;1.00;;;;;;6140087;23;20470;-83
2022/09/10 09:00:17;;;;;;;5.77;1.93;;;20.70;1.00;;;;;;6142563;23;20601;-82
2022/09/10 09:02:52;;;;;;;7.63;3.50;;;20.80;1.00;;;;;;6097522;23;20467;-82
2022/09/10 09:05:24;;;;;;;7.93;2.37;;;21.00;1.00;;;;;;6064307;23;21298;-82
2022/09/10 09:07:52;;;;;;;5.50;1.70;;;21.10;1.00;;;;;;6137708;23;21167;-84
2022/09/10 09:10:32;;;;;;;7.00;2.20;;;21.30;1.00;;;;;;6131040;23;20516;-81
2022/09/10 09:13:25;;;;;;;7.13;3.63;;;21.40;1.00;;;;;;6142490;23;20863;-83
2022/09/10 09:16:16;;;;;;;5.37;1.70;;;21.60;1.00;;;;;;6143463;23;20475;-83
2022/09/10 09:19:00;;;;;;;5.23;1.60;;;22.10;1.00;;;;;;6141910;23;20538;-82
2022/09/10 09:21:45;;;;;;;5.40;1.60;;;23.50;1.00;;;;;;6142231;23;20495;-81
2022/09/10 09:24:26;;;;;;;7.93;2.40;;;25.30;1.00;;;;;;6138488;23;20422;-82
2022/09/10 09:27:00;;;;;;;5.73;1.67;;;27.20;1.00;;;;;;6142376;23;20414;-83
2022/09/10 09:29:31;;;;;;;5.87;1.40;;;28.30;1.00;;;;;;6140173;23;20909;-83
2022/09/10 09:32:03;;;;;;;6.50;1.70;;;29.10;1.00;;;;;;6143128;23;20443;-84
2022/09/10 09:34:36;;;;;;;8.80;2.33;;;30.00;1.00;;;;;;6126444;23;20444;-83
2022/09/10 09:37:07;;;;;;;5.40;1.70;;;30.50;1.00;;;;;;6138837;23;20424;-78
2022/09/10 09:39:42;;;;;;;5.37;1.67;;;30.70;1.00;;;;;;6132374;23;20419;-80
2022/09/10 09:42:18;;;;;;;6.70;1.70;;;31.30;1.00;;;;;;6067191;23;21239;-78
2022/09/10 09:44:51;;;;;;;6.73;1.70;;;31.10;1.00;;;;;;6136074;23;20442;-80
2022/09/10 09:47:19;;;;;;;5.30;1.60;;;31.50;1.00;;;;;;6107601;23;20419;-80
2022/09/10 09:49:46;;;;;;;5.50;1.17;;;32.00;1.00;;;;;;6135129;23;20424;-80
2022/09/10 09:52:21;;;;;;;6.17;1.80;;;32.60;1.00;;;;;;6120377;23;20439;-79
2022/09/10 09:54:52;;;;;;;4.90;1.70;;;32.90;1.00;;;;;;6136058;23;20836;-80
2022/09/10 09:57:21;;;;;;;5.23;1.27;;;32.40;1.00;;;;;;6120565;23;20503;-82
2022/09/10 09:59:50;;;;;;;5.00;2.00;;;32.20;1.00;;;;;;6119851;23;20427;-79
2022/09/10 10:02:22;;;;;;;7.57;2.03;;;32.80;1.00;;;;;;6131367;23;20435;-81
2022/09/10 10:05:05;;;;;;;5.10;1.70;;;32.30;1.00;;;;;;6134399;23;20478;-79
2022/09/10 10:07:35;;;;;;;5.00;1.27;;;31.70;1.00;;;;;;6109620;23;20506;-81
2022/09/10 10:10:31;;;;;;;5.43;1.70;;;32.40;1.00;;;;;;6094141;23;20423;-80
2022/09/10 10:13:12;;;;;;;5.47;1.37;;;33.20;1.00;;;;;;6121919;23;20407;-81
2022/09/10 10:15:48;;;;;;;6.27;1.70;;;33.80;1.00;;;;;;6122650;23;20412;-79
2022/09/10 10:18:31;;;;;;;4.70;1.10;;;33.20;1.00;;;;;;6108584;23;20791;-81
2022/09/10 10:21:18;;;;;;;5.80;2.20;;;33.20;1.00;;;;;;6085616;23;20428;-80
2022/09/10 10:23:51;;;;;;;5.67;2.43;;;31.80;1.00;;;;;;6137528;23;20439;-79
2022/09/10 10:26:29;;;;;;;8.87;2.53;;;31.20;1.00;;;;;;6085904;23;20423;-79
2022/09/10 10:29:02;;;;;;;4.63;1.17;;;31.90;1.00;;;;;;6124579;23;20825;-80
2022/09/10 10:31:39;;;;;;;4.97;1.23;;;33.30;1.00;;;;;;6125621;23;20423;-80
2022/09/10 10:34:37;;;;;;;5.43;1.70;;;34.30;1.00;;;;;;6109627;23;20461;-80
2022/09/10 10:37:11;;;;;;;5.83;1.47;;;35.00;1.00;;;;;;6133647;23;20519;-82
2022/09/10 10:39:57;;;;;;;5.00;1.30;;;33.50;1.00;;;;;;6137964;23;20419;-79
2022/09/10 10:42:33;;;;;;;6.20;1.60;;;31.90;1.00;;;;;;6096758;23;20423;-80
2022/09/10 10:45:51;;;;;;;4.90;1.20;;;32.40;1.00;;;;;;6126987;23;20431;-81
2022/09/10 10:48:42;;;;;;;5.30;1.50;;;32.50;1.00;;;;;;6111415;23;20404;-80
2022/09/10 10:51:19;;;;;;;6.07;1.43;;;33.20;1.00;;;;;;6115309;23;20438;-80
2022/09/10 10:54:01;;;;;;;5.13;1.30;;;34.50;1.00;;;;;;6141089;23;20391;-79
2022/09/10 10:56:32;;;;;;;4.83;1.30;;;34.30;1.00;;;;;;6100618;23;20431;-80
2022/09/10 10:59:31;;;;;;;7.20;1.67;;;33.80;1.00;;;;;;6125216;23;20405;-80
2022/09/10 11:02:15;;;;;;;6.13;1.77;;;32.20;1.00;;;;;;6114273;23;20403;-81
2022/09/10 11:04:53;;;;;;;5.70;1.60;;;31.00;1.00;;;;;;6116489;23;20391;-80
2022/09/10 11:07:28;;;;;;;4.90;1.20;;;30.10;1.00;;;;;;6127745;23;20506;-80
2022/09/10 11:10:11;;;;;;;7.00;2.10;;;29.10;1.00;;;;;;6117402;23;20423;-80
2022/09/10 11:12:54;;;;;;;6.70;1.57;;;28.00;1.00;;;;;;6097125;23;20424;-79
2022/09/10 11:15:34;;;;;;;6.30;1.50;;;27.10;1.00;;;;;;6076777;23;20856;-81
2022/09/10 11:18:14;;;;;;;4.90;1.17;;;26.50;1.00;;;;;;6138468;23;20534;-81
2022/09/10 11:20:46;;;;;;;5.93;1.93;;;26.50;1.00;;;;;;6122115;23;20431;-82
2022/09/10 11:23:28;;;;;;;6.13;1.10;;;28.90;1.00;;;;;;6116805;23;20420;-81
2022/09/10 11:26:01;;;;;;;6.30;1.20;;;29.60;1.00;;;;;;6125639;23;20419;-82
2022/09/10 11:28:32;;;;;;;4.90;1.30;;;29.00;1.00;;;;;;6138328;23;20514;-79
2022/09/10 11:31:08;;;;;;;5.40;1.60;;;28.60;1.00;;;;;;6125200;23;20435;-80
2022/09/10 11:33:45;;;;;;;5.30;1.50;;;29.60;1.00;;;;;;6137438;23;20423;-80
2022/09/10 11:36:18;;;;;;;5.77;1.43;;;29.90;1.00;;;;;;6122145;23;20443;-80
2022/09/10 11:38:54;;;;;;;4.80;1.47;;;29.20;1.00;;;;;;6112344;23;20412;-82
2022/09/10 11:41:24;;;;;;;6.77;1.70;;;29.00;1.00;;;;;;6102193;23;20443;-80
2022/09/10 11:43:59;;;;;;;5.23;1.47;;;30.60;1.00;;;;;;6134559;23;20511;-81
2022/09/10 11:46:31;;;;;;;7.37;1.90;;;31.90;1.00;;;;;;6133473;23;20454;-81
2022/09/10 11:49:06;;;;;;;5.10;1.20;;;32.40;1.00;;;;;;6135240;23;21195;-82
2022/09/10 11:51:36;;;;;;;5.23;1.20;;;33.20;1.00;;;;;;6137269;23;20498;-80
2022/09/10 11:54:12;;;;;;;4.87;1.27;;;32.50;1.00;;;;;;6136507;23;20954;-82
2022/09/10 11:56:51;;;;;;;6.50;1.60;;;30.90;1.00;;;;;;6123944;23;20440;-80
2022/09/10 11:59:31;;;;;;;5.13;1.40;;;29.70;1.00;;;;;;6138164;23;20431;-80
2022/09/10 12:02:20;;;;;;;5.03;1.60;;;30.40;1.00;;;;;;6111451;23;20398;-80
2022/09/10 12:04:58;;;;;;;6.77;1.83;;;32.90;1.00;;;;;;6083386;23;20757;-80
2022/09/10 12:07:40;;;;;;;8.17;6.73;;;34.20;1.00;;;;;;6136772;23;20424;-83
2022/09/10 12:10:19;;;;;;;5.17;1.10;;;34.00;1.00;;;;;;6112560;23;20418;-82
2022/09/10 12:12:50;;;;;;;5.20;1.30;;;32.90;1.00;;;;;;6117772;23;20501;-82
2022/09/10 12:15:23;;;;;;;6.23;1.33;;;33.40;1.00;;;;;;6111789;23;20404;-82
2022/09/10 12:17:58;;;;;;;6.47;1.17;;;35.10;1.00;;;;;;6114776;23;20496;-83
2022/09/10 12:20:33;;;;;;;7.90;1.83;;;37.10;1.00;;;;;;6099438;23;20979;-81
2022/09/10 12:23:02;;;;;;;5.07;1.47;;;38.00;1.00;;;;;;6123337;23;20423;-81
2022/09/10 12:25:33;;;;;;;4.47;1.30;;;38.60;1.00;;;;;;6093085;23;20488;-83
2022/09/10 12:28:10;;;;;;;4.77;1.30;;;37.30;1.00;;;;;;6102337;23;20527;-81
2022/09/10 12:31:10;;;;;;;4.30;1.20;;;37.80;1.00;;;;;;6097009;23;20451;-81
2022/09/10 12:34:11;;;;;;;4.10;1.00;;;36.00;1.00;;;;;;6110602;23;20503;-80
2022/09/10 12:37:14;;;;;;;6.33;1.60;;;32.70;1.00;;;;;;6107037;23;20447;-79
2022/09/10 12:39:43;;;;;;;6.33;1.53;;;30.90;1.00;;;;;;6100630;23;20435;-80
2022/09/10 12:42:44;;;;;;;4.87;1.00;;;29.60;1.00;;;;;;6120937;23;20420;-81
2022/09/10 12:45:11;;;;;;;5.30;1.43;;;28.50;1.00;;;;;;6036925;23;21208;-80
2022/09/10 12:47:52;;;;;;;6.53;1.87;;;27.90;1.00;;;;;;6110516;23;20479;-80
2022/09/10 12:50:27;;;;;;;5.03;1.57;;;27.20;1.00;;;;;;6101218;23;20427;-79
2022/09/10 12:53:31;;;;;;;5.37;1.20;;;26.70;1.00;;;;;;6116702;23;20399;-82
2022/09/10 12:56:10;;;;;;;5.27;1.73;;;26.30;1.00;;;;;;6109448;23;20443;-80
2022/09/10 12:59:10;;;;;;;5.07;1.40;;;26.80;1.00;;;;;;6111608;23;20444;-82
2022/09/10 13:01:45;;;;;;;6.07;1.40;;;27.70;1.00;;;;;;6123985;23;20431;-79
2022/09/10 13:04:28;;;;;;;7.77;1.80;;;27.50;1.00;;;;;;6124163;23;20442;-81
2022/09/10 13:07:00;;;;;;;7.43;2.00;;;27.10;1.00;;;;;;6139094;23;20415;-81
2022/09/10 13:09:38;;;;;;;6.13;2.70;;;26.90;1.00;;;;;;6069517;23;21235;-80
2022/09/10 13:12:20;;;;;;;5.90;1.60;;;26.70;1.00;;;;;;6124680;23;20432;-80
2022/09/10 13:14:51;;;;;;;5.70;2.40;;;26.50;1.00;;;;;;6122225;23;20561;-80
2022/09/10 13:17:39;;;;;;;8.10;2.40;;;26.30;1.00;;;;;;6105948;23;20494;-83
2022/09/10 13:20:27;;;;;;;5.47;1.60;;;26.10;1.00;;;;;;6109836;23;20451;-80
2022/09/10 13:23:00;;;;;;;5.90;2.00;;;25.80;1.00;;;;;;6124960;23;20428;-80
2022/09/10 13:25:40;;;;;;;6.40;1.63;;;25.50;1.00;;;;;;6121580;23;20436;-78
2022/09/10 13:28:51;;;;;;;5.90;1.63;;;25.30;1.00;;;;;;6122250;23;20408;-79